Time;durP1;ratioP1;P1;durP2;ratioP2;P2;SDS_P1;SDS_P2;PMS_P1;PMS_P2;Temp;Humidity;BMP_temperature;BMP_pressure;BME280_temperature;BME280_humidity;BME280_pressure;Samples;Min_cycle;Max_cycle;Signal;HPM_P1;HPM_P2
2022/11/09 00:01:59;;;;;;;2.92;1.20;;;11.90;99.90;;;;;;6132944;19;19930;-64
2022/11/09 00:04:05;;;;;;;3.08;1.60;;;11.80;99.90;;;;;;6132175;19;20361;-65
2022/11/09 00:06:09;;;;;;;2.08;1.10;;;11.40;99.90;;;;;;6132733;19;19922;-65
2022/11/09 00:08:13;;;;;;;6.57;1.58;;;11.80;99.90;;;;;;6131171;19;19938;-65
2022/11/09 00:10:17;;;;;;;6.93;1.65;;;11.80;99.90;;;;;;6131189;19;19914;-65
2022/11/09 00:12:21;;;;;;;3.75;1.48;;;11.70;99.90;;;;;;6129604;19;19918;-65
2022/11/09 00:14:25;;;;;;;2.72;1.77;;;11.70;99.90;;;;;;6131040;19;19914;-65
2022/11/09 00:16:29;;;;;;;3.83;1.38;;;12.30;99.90;;;;;;6130845;19;19914;-64
2022/11/09 00:18:36;;;;;;;4.82;1.50;;;11.90;99.90;;;;;;6130811;19;19925;-65
2022/11/09 00:20:40;;;;;;;4.90;1.73;;;11.80;99.90;;;;;;6133349;19;19933;-65
2022/11/09 00:22:44;;;;;;;3.22;1.02;;;11.90;99.90;;;;;;6133127;19;19922;-64
2022/11/09 00:24:48;;;;;;;3.70;1.50;;;12.50;99.90;;;;;;6130679;19;19943;-65
2022/11/09 00:26:52;;;;;;;8.23;2.13;;;12.10;99.90;;;;;;6130166;19;19915;-65
2022/11/09 00:28:56;;;;;;;1.75;1.20;;;12.30;99.90;;;;;;6129097;19;19943;-65
2022/11/09 00:31:03;;;;;;;4.03;1.50;;;12.10;99.90;;;;;;6131696;19;19927;-65
2022/11/09 00:33:07;;;;;;;2.92;1.20;;;12.10;99.90;;;;;;6134328;19;19923;-65
2022/11/09 00:35:14;;;;;;;2.53;1.48;;;12.50;99.90;;;;;;6130507;19;19914;-64
2022/11/09 00:37:18;;;;;;;3.10;1.30;;;12.50;99.90;;;;;;6130658;19;19923;-64
2022/11/09 00:39:22;;;;;;;4.53;1.40;;;12.20;99.90;;;;;;6132641;19;20263;-64
2022/11/09 00:41:27;;;;;;;8.27;1.90;;;12.60;99.90;;;;;;6130919;19;19922;-64
2022/11/09 00:43:31;;;;;;;2.20;1.35;;;12.10;99.90;;;;;;6131803;19;20336;-65
2022/11/09 00:45:35;;;;;;;2.63;1.08;;;12.70;99.90;;;;;;6130265;19;20279;-64
2022/11/09 00:47:39;;;;;;;3.72;1.67;;;11.90;99.90;;;;;;6128218;19;19914;-64
2022/11/09 00:49:43;;;;;;;2.50;1.27;;;13.00;99.90;;;;;;6130342;19;19942;-64
2022/11/09 00:51:49;;;;;;;3.97;1.92;;;12.50;99.90;;;;;;6131205;19;19946;-64
2022/11/09 00:53:54;;;;;;;2.58;1.30;;;12.50;99.90;;;;;;6130276;19;19943;-64
2022/11/09 00:55:59;;;;;;;4.05;1.70;;;12.20;99.90;;;;;;6128215;19;19919;-64
2022/11/09 00:58:03;;;;;;;2.60;1.42;;;11.90;99.90;;;;;;6129692;19;19918;-64
2022/11/09 01:00:08;;;;;;;3.45;1.33;;;12.00;99.90;;;;;;6129249;19;19918;-64
2022/11/09 01:02:12;;;;;;;5.13;1.30;;;12.40;99.90;;;;;;6132914;19;19939;-64
2022/11/09 01:04:16;;;;;;;3.67;1.20;;;;;;;;;;6130183;19;19910;-64
2022/11/09 01:06:22;;;;;;;4.18;1.40;;;12.30;99.90;;;;;;6129220;19;19925;-64
2022/11/09 01:08:29;;;;;;;2.92;0.80;;;12.30;99.90;;;;;;6132161;19;19918;-64
2022/11/09 01:10:33;;;;;;;5.78;1.42;;;12.30;99.90;;;;;;6128796;19;19938;-64
2022/11/09 01:12:36;;;;;;;3.38;1.33;;;12.80;99.90;;;;;;6131722;19;19946;-64
2022/11/09 01:14:40;;;;;;;3.38;1.33;;;12.50;99.90;;;;;;6131481;19;19950;-64
2022/11/09 01:16:44;;;;;;;3.20;1.35;;;12.00;99.90;;;;;;6129566;19;19924;-64
2022/11/09 01:18:49;;;;;;;4.10;1.50;;;12.10;99.90;;;;;;6131992;19;20292;-64
2022/11/09 01:20:53;;;;;;;3.33;1.48;;;12.00;99.90;;;;;;6129573;19;19930;-64
2022/11/09 01:22:56;;;;;;;4.50;1.33;;;12.20;99.90;;;;;;6129531;19;19942;-64
2022/11/09 01:25:03;;;;;;;1.95;1.33;;;11.70;99.90;;;;;;6131866;19;19915;-64
2022/11/09 01:27:07;;;;;;;3.45;1.40;;;12.00;99.90;;;;;;6133539;19;19936;-64
2022/11/09 01:29:11;;;;;;;5.03;1.58;;;12.00;99.90;;;;;;6131005;19;19919;-65
2022/11/09 01:31:19;;;;;;;2.70;1.50;;;12.00;99.90;;;;;;6130746;19;19947;-65
2022/11/09 01:33:23;;;;;;;6.15;1.73;;;12.10;99.90;;;;;;6128685;19;19923;-65
2022/11/09 01:35:27;;;;;;;4.10;1.10;;;11.90;99.90;;;;;;6129400;19;20269;-65
2022/11/09 01:37:31;;;;;;;6.53;1.75;;;11.90;99.90;;;;;;6128498;19;19919;-65
2022/11/09 01:39:35;;;;;;;4.90;1.38;;;12.20;99.90;;;;;;6130939;19;19938;-65
2022/11/09 01:41:42;;;;;;;5.28;1.50;;;12.00;99.90;;;;;;6129757;19;19942;-65
2022/11/09 01:43:46;;;;;;;2.72;1.10;;;11.90;99.90;;;;;;6129080;19;19950;-64
2022/11/09 01:45:53;;;;;;;3.42;1.50;;;11.90;99.90;;;;;;6129545;19;19935;-64
2022/11/09 01:48:02;;;;;;;3.22;2.08;;;11.80;99.90;;;;;;6129276;19;19950;-64
2022/11/09 01:50:07;;;;;;;5.43;1.27;;;12.00;99.90;;;;;;6129172;19;19923;-65
2022/11/09 01:52:15;;;;;;;3.80;1.30;;;12.10;99.90;;;;;;6130620;19;20308;-65
2022/11/09 01:54:24;;;;;;;4.43;1.30;;;11.80;99.90;;;;;;6128636;19;19921;-65
2022/11/09 01:56:29;;;;;;;5.88;1.35;;;12.20;99.90;;;;;;6130760;19;19937;-65
2022/11/09 01:58:40;;;;;;;6.82;1.40;;;11.90;99.90;;;;;;6129278;19;19914;-66
2022/11/09 02:00:48;;;;;;;3.78;1.38;;;12.00;99.90;;;;;;6128427;19;19918;-66
2022/11/09 02:02:58;;;;;;;5.50;1.58;;;12.10;99.90;;;;;;6128827;19;19922;-65
2022/11/09 02:05:08;;;;;;;4.57;1.27;;;11.70;99.90;;;;;;6128459;19;19914;-65
2022/11/09 02:07:12;;;;;;;2.67;1.13;;;12.00;99.90;;;;;;6128832;19;19915;-65
2022/11/09 02:09:24;;;;;;;4.20;1.23;;;11.70;99.90;;;;;;6130616;19;19914;-65
2022/11/09 02:11:29;;;;;;;4.07;1.60;;;11.80;99.90;;;;;;6127979;19;19911;-65
2022/11/09 02:13:36;;;;;;;5.18;1.30;;;11.90;99.90;;;;;;6127430;19;19921;-65
2022/11/09 02:15:40;;;;;;;6.85;1.17;;;;;;;;;;6130573;19;19914;-65
2022/11/09 02:17:45;;;;;;;2.60;1.25;;;11.40;99.90;;;;;;6128375;19;20333;-65
2022/11/09 02:19:49;;;;;;;3.08;1.40;;;11.70;99.90;;;;;;6131933;19;19919;-65
2022/11/09 02:21:55;;;;;;;4.22;1.38;;;11.80;99.90;;;;;;6129639;19;19930;-65
2022/11/09 02:24:00;;;;;;;1.38;0.93;;;11.90;99.90;;;;;;6130083;19;19923;-65
2022/11/09 02:26:10;;;;;;;4.80;1.30;;;11.80;99.90;;;;;;6127719;19;19915;-65
2022/11/09 02:28:14;;;;;;;5.45;1.15;;;11.80;99.90;;;;;;6127963;19;19928;-65
2022/11/09 02:30:20;;;;;;;5.50;1.27;;;11.70;99.90;;;;;;6128708;19;19927;-65
2022/11/09 02:32:27;;;;;;;4.35;1.30;;;11.60;99.90;;;;;;6129729;19;20020;-65
2022/11/09 02:34:31;;;;;;;4.15;1.40;;;11.70;99.90;;;;;;6128350;19;19914;-64
2022/11/09 02:36:35;;;;;;;2.33;1.10;;;11.80;99.90;;;;;;6129280;19;19929;-65
2022/11/09 02:38:42;;;;;;;4.30;1.33;;;11.80;99.90;;;;;;6128423;19;20215;-64
2022/11/09 02:40:50;;;;;;;5.43;1.20;;;12.10;99.90;;;;;;6130469;19;19922;-65
2022/11/09 02:42:54;;;;;;;3.63;1.45;;;11.70;99.90;;;;;;6129188;19;20340;-65
2022/11/09 02:45:01;;;;;;;5.10;1.33;;;12.20;99.90;;;;;;6130903;19;19938;-66
2022/11/09 02:47:05;;;;;;;3.60;1.13;;;11.50;99.90;;;;;;6127598;19;19918;-65
2022/11/09 02:49:08;;;;;;;4.60;1.17;;;11.60;99.90;;;;;;6129118;19;20336;-65
2022/11/09 02:51:12;;;;;;;2.45;0.95;;;12.20;99.90;;;;;;6129011;19;19942;-65
2022/11/09 02:53:16;;;;;;;3.22;1.00;;;;;;;;;;6126709;19;20348;-64
2022/11/09 02:55:23;;;;;;;5.85;1.25;;;11.80;99.90;;;;;;6126600;19;20324;-65
2022/11/09 02:57:27;;;;;;;3.25;1.23;;;11.70;99.90;;;;;;6127645;19;20284;-65
2022/11/09 02:59:30;;;;;;;3.05;1.15;;;11.60;99.90;;;;;;6129380;19;19937;-64
2022/11/09 03:01:34;;;;;;;3.97;1.30;;;;;;;;;;6128861;19;19938;-65
2022/11/09 03:03:39;;;;;;;3.15;1.23;;;12.00;99.90;;;;;;6129102;19;19930;-64
2022/11/09 03:05:43;;;;;;;4.95;1.20;;;11.60;99.90;;;;;;6127314;19;19921;-65
2022/11/09 03:07:47;;;;;;;4.15;1.25;;;;;;;;;;6127336;19;19937;-65
2022/11/09 03:09:52;;;;;;;3.67;1.30;;;11.70;99.90;;;;;;6129450;19;19946;-66
2022/11/09 03:12:27;;;;;;;4.82;1.58;;;11.70;99.90;;;;;;6126828;19;19911;-65
2022/11/09 03:14:23;;;;;;;2.95;1.00;;;11.50;99.90;;;;;;6127172;19;19926;-64
2022/11/09 03:16:27;;;;;;;3.53;1.30;;;11.50;99.90;;;;;;6128524;19;19922;-65
2022/11/09 03:18:30;;;;;;;6.07;1.52;;;11.90;99.90;;;;;;6126328;19;19915;-65
2022/11/09 03:20:35;;;;;;;7.85;1.27;;;11.70;99.90;;;;;;6128938;19;19924;-65
2022/11/09 03:22:38;;;;;;;3.45;1.10;;;11.60;99.90;;;;;;6126931;19;19922;-66
2022/11/09 03:24:42;;;;;;;3.47;1.30;;;;;;;;;;6126173;19;19915;-65
2022/11/09 03:26:46;;;;;;;3.25;1.70;;;11.80;99.90;;;;;;6130672;19;19918;-65
2022/11/09 03:28:53;;;;;;;6.70;1.30;;;11.30;99.90;;;;;;6126460;19;19946;-65
2022/11/09 03:30:57;;;;;;;4.85;1.25;;;11.70;99.90;;;;;;6126687;19;19919;-65
2022/11/09 03:33:01;;;;;;;4.03;1.10;;;11.80;99.90;;;;;;6125639;19;19914;-65
2022/11/09 03:35:05;;;;;;;4.78;1.10;;;11.70;99.90;;;;;;6126601;19;19911;-65
2022/11/09 03:37:08;;;;;;;7.38;1.20;;;11.80;99.90;;;;;;6128075;19;20347;-65
2022/11/09 03:39:13;;;;;;;5.72;1.10;;;11.50;99.90;;;;;;6127802;19;19923;-65
2022/11/09 03:41:17;;;;;;;8.30;1.58;;;11.70;99.90;;;;;;6127684;19;20394;-65
2022/11/09 03:43:21;;;;;;;3.40;1.15;;;11.40;99.90;;;;;;6127504;19;19922;-65
2022/11/09 03:45:29;;;;;;;5.53;1.25;;;11.70;99.90;;;;;;6126199;19;19918;-65
2022/11/09 03:47:33;;;;;;;5.78;1.50;;;11.50;99.90;;;;;;6127137;19;19922;-65
2022/11/09 03:49:37;;;;;;;2.63;1.23;;;11.70;99.90;;;;;;6128292;19;19922;-64
2022/11/09 03:51:40;;;;;;;5.22;1.15;;;11.80;99.90;;;;;;6128709;19;19925;-65
2022/11/09 03:53:44;;;;;;;6.40;1.48;;;11.60;99.90;;;;;;6124595;19;19982;-64
2022/11/09 03:55:48;;;;;;;4.20;1.20;;;11.40;99.90;;;;;;6125590;19;19918;-65
2022/11/09 03:57:52;;;;;;;5.60;0.90;;;11.60;99.90;;;;;;6125286;19;19922;-65
2022/11/09 03:59:56;;;;;;;4.28;0.90;;;11.50;99.90;;;;;;6129049;19;19930;-64
2022/11/09 04:02:02;;;;;;;4.80;1.23;;;11.40;99.90;;;;;;6125925;19;19950;-65
2022/11/09 04:04:06;;;;;;;2.60;1.17;;;11.50;99.90;;;;;;6125677;19;19930;-65
2022/11/09 04:06:10;;;;;;;2.67;0.93;;;11.60;99.90;;;;;;6125006;19;19918;-64
2022/11/09 04:08:14;;;;;;;2.55;1.23;;;11.60;99.90;;;;;;6125061;19;20461;-65
2022/11/09 04:10:19;;;;;;;4.50;1.30;;;11.40;99.90;;;;;;6125664;19;19915;-65
2022/11/09 04:12:23;;;;;;;8.13;1.40;;;;;;;;;;6128007;19;19918;-64
2022/11/09 04:14:26;;;;;;;5.30;1.20;;;11.20;99.90;;;;;;6125597;19;20347;-65
2022/11/09 04:16:30;;;;;;;6.13;1.58;;;11.50;99.90;;;;;;6128625;19;19918;-64
2022/11/09 04:18:37;;;;;;;4.70;1.25;;;11.40;99.90;;;;;;6126165;19;19923;-64
2022/11/09 04:20:41;;;;;;;4.80;0.93;;;11.50;99.90;;;;;;6125836;19;20336;-64
2022/11/09 04:22:45;;;;;;;4.63;1.70;;;11.20;99.90;;;;;;6125192;19;19936;-64
2022/11/09 04:24:49;;;;;;;5.85;1.48;;;11.10;99.90;;;;;;6124934;19;19919;-64
2022/11/09 04:26:53;;;;;;;6.43;1.67;;;11.40;99.90;;;;;;6126984;19;19950;-64
2022/11/09 04:28:56;;;;;;;3.92;0.90;;;11.00;99.90;;;;;;6123772;19;19938;-64
2022/11/09 04:31:03;;;;;;;6.57;1.20;;;11.20;99.90;;;;;;6125170;19;19923;-64
2022/11/09 04:33:07;;;;;;;5.25;1.00;;;11.60;99.90;;;;;;6124109;19;19931;-64
2022/11/09 04:35:14;;;;;;;2.83;0.85;;;11.10;99.90;;;;;;6124849;19;20378;-64
2022/11/09 04:37:17;;;;;;;5.57;1.15;;;11.50;99.90;;;;;;6130764;19;19914;-64
2022/11/09 04:39:22;;;;;;;5.03;1.20;;;11.20;99.90;;;;;;6132695;19;19910;-64
2022/11/09 04:41:26;;;;;;;4.45;1.38;;;10.90;99.90;;;;;;6134120;19;20288;-64
2022/11/09 04:43:30;;;;;;;3.75;0.90;;;11.50;99.90;;;;;;6130481;19;19915;-64
2022/11/09 04:45:35;;;;;;;5.95;1.52;;;11.10;99.90;;;;;;6130491;19;20270;-64
2022/11/09 04:47:38;;;;;;;4.20;1.35;;;11.00;99.90;;;;;;6128122;19;19921;-64
2022/11/09 04:49:42;;;;;;;5.05;1.30;;;;;;;;;;6129771;19;19942;-65
2022/11/09 04:51:49;;;;;;;5.68;1.17;;;10.90;99.90;;;;;;6129029;19;19925;-65
2022/11/09 04:53:53;;;;;;;5.43;1.77;;;;;;;;;;6128344;19;20252;-64
2022/11/09 04:55:57;;;;;;;4.47;1.88;;;;;;;;;;6131051;19;19926;-65
2022/11/09 04:58:01;;;;;;;6.60;1.40;;;11.00;99.90;;;;;;6130374;19;19929;-64
2022/11/09 05:00:06;;;;;;;7.55;1.15;;;11.10;99.90;;;;;;6129088;19;19918;-65
2022/11/09 05:02:10;;;;;;;13.25;1.80;;;11.10;99.90;;;;;;6129912;19;19925;-66
2022/11/09 05:04:13;;;;;;;5.07;1.10;;;11.10;99.90;;;;;;6130213;19;19918;-65
2022/11/09 05:08:36;;;;;;;4.35;1.40;;;11.40;99.90;;;;;;6130981;19;20407;-64
2022/11/09 05:10:40;;;;;;;3.08;1.00;;;11.10;99.90;;;;;;6131876;19;19911;-65
2022/11/09 05:12:44;;;;;;;2.08;0.98;;;11.30;99.90;;;;;;6129625;19;19970;-65
2022/11/09 05:14:48;;;;;;;4.28;1.52;;;11.00;99.90;;;;;;6128292;19;19921;-65
2022/11/09 05:16:52;;;;;;;3.08;1.10;;;11.60;99.90;;;;;;6132816;19;19942;-64
2022/11/09 05:18:56;;;;;;;3.78;1.20;;;;;;;;;;6130175;19;20249;-66
2022/11/09 05:21:00;;;;;;;5.30;1.33;;;11.10;99.90;;;;;;6130319;19;19922;-65
2022/11/09 05:25:23;;;;;;;2.55;1.10;;;11.00;99.90;;;;;;6128860;19;20605;-65
2022/11/09 05:27:27;;;;;;;4.75;1.30;;;11.60;99.90;;;;;;6129889;19;19919;-65
2022/11/09 05:29:31;;;;;;;4.43;1.40;;;11.30;99.90;;;;;;6127710;19;19923;-65
2022/11/09 05:31:35;;;;;;;6.80;1.30;;;11.00;99.90;;;;;;6131303;19;19970;-65
2022/11/09 05:33:39;;;;;;;6.20;1.30;;;11.20;99.90;;;;;;6129840;19;20252;-65
2022/11/09 05:35:43;;;;;;;11.82;1.35;;;11.30;99.90;;;;;;6129404;19;19914;-65
2022/11/09 05:37:49;;;;;;;5.38;1.15;;;11.30;99.90;;;;;;6129623;19;19967;-65
2022/11/09 05:39:53;;;;;;;6.38;1.60;;;11.20;99.90;;;;;;6130762;19;20636;-65
2022/11/09 05:42:00;;;;;;;5.85;1.33;;;11.20;99.90;;;;;;6128569;19;20336;-65
2022/11/09 05:44:04;;;;;;;10.63;1.30;;;11.10;99.90;;;;;;6129538;19;19933;-65
2022/11/09 05:46:08;;;;;;;4.50;1.20;;;11.20;99.90;;;;;;6128478;19;19921;-65
2022/11/09 05:48:13;;;;;;;4.50;1.00;;;11.20;99.90;;;;;;6129187;19;19938;-65
2022/11/09 05:50:17;;;;;;;5.25;1.60;;;11.30;99.90;;;;;;6130326;19;20268;-65
2022/11/09 05:52:21;;;;;;;7.13;1.08;;;11.50;99.90;;;;;;6129592;19;19942;-65
2022/11/09 05:54:25;;;;;;;5.38;1.25;;;11.10;99.90;;;;;;6130744;19;19918;-65
2022/11/09 05:56:29;;;;;;;5.15;1.27;;;11.00;99.90;;;;;;6129243;19;19910;-65
2022/11/09 05:58:37;;;;;;;5.78;1.27;;;11.10;99.90;;;;;;6128478;19;19935;-65
2022/11/09 06:00:41;;;;;;;3.53;1.08;;;11.50;99.90;;;;;;6129041;19;19914;-65
2022/11/09 06:02:45;;;;;;;3.03;1.30;;;11.10;99.90;;;;;;6128827;19;19987;-65
2022/11/09 06:04:49;;;;;;;7.72;1.30;;;11.60;99.90;;;;;;6130397;19;19925;-65
2022/11/09 06:06:53;;;;;;;4.97;1.70;;;11.40;99.90;;;;;;6130019;19;19922;-65
2022/11/09 06:08:57;;;;;;;3.47;1.00;;;11.20;99.90;;;;;;6132058;19;20287;-65
2022/11/09 06:11:02;;;;;;;4.72;1.67;;;11.40;99.90;;;;;;6130883;19;19914;-65
2022/11/09 06:13:06;;;;;;;5.88;0.90;;;11.40;99.90;;;;;;6129657;19;19919;-65
2022/11/09 06:15:13;;;;;;;2.72;1.20;;;11.20;99.90;;;;;;6128434;19;20340;-65
2022/11/09 06:17:17;;;;;;;3.95;1.40;;;11.40;99.90;;;;;;6128257;19;19910;-65
2022/11/09 06:19:21;;;;;;;7.20;1.70;;;11.00;99.90;;;;;;6128659;19;20293;-65
2022/11/09 06:21:24;;;;;;;5.15;1.02;;;11.30;99.90;;;;;;6128162;19;19925;-65
2022/11/09 06:23:29;;;;;;;3.17;1.33;;;11.40;99.90;;;;;;6131248;19;19918;-65
2022/11/09 06:25:34;;;;;;;3.97;1.17;;;11.20;99.90;;;;;;6130358;19;20300;-65
2022/11/09 06:27:38;;;;;;;8.00;1.48;;;;;;;;;;6127746;19;19914;-65
2022/11/09 06:29:42;;;;;;;5.70;1.27;;;11.50;99.90;;;;;;6126564;19;19918;-65
2022/11/09 06:31:50;;;;;;;10.57;1.45;;;11.10;99.90;;;;;;6128401;19;19950;-65
2022/11/09 06:33:54;;;;;;;6.20;1.23;;;11.40;99.90;;;;;;6130706;19;20001;-65
2022/11/09 06:35:58;;;;;;;4.45;1.02;;;11.00;99.90;;;;;;6127857;19;19923;-66
2022/11/09 06:38:03;;;;;;;6.28;1.40;;;11.30;99.90;;;;;;6129181;19;20329;-65
2022/11/09 06:40:09;;;;;;;4.00;1.13;;;11.40;99.90;;;;;;6129969;19;19921;-65
2022/11/09 06:42:13;;;;;;;6.70;1.20;;;11.80;99.90;;;;;;6129430;19;19942;-65
2022/11/09 06:44:17;;;;;;;4.43;1.20;;;11.10;99.90;;;;;;6126781;19;19946;-66
2022/11/09 06:46:20;;;;;;;2.90;1.10;;;11.00;99.90;;;;;;6129418;19;20363;-66
2022/11/09 06:48:27;;;;;;;6.10;1.27;;;11.00;99.90;;;;;;6127949;19;19938;-66
2022/11/09 06:50:35;;;;;;;4.38;1.10;;;11.10;99.90;;;;;;6127706;19;19914;-65
2022/11/09 06:52:38;;;;;;;4.50;1.20;;;10.80;99.90;;;;;;6127623;19;19938;-65
2022/11/09 06:54:43;;;;;;;4.15;1.05;;;10.80;99.90;;;;;;6124482;19;19933;-65
2022/11/09 06:56:47;;;;;;;3.25;1.17;;;;;;;;;;6125454;19;19918;-72
2022/11/09 06:58:51;;;;;;;3.83;1.27;;;10.90;99.90;;;;;;6126304;19;19918;-72
2022/11/09 07:00:55;;;;;;;5.07;1.10;;;11.00;99.90;;;;;;6126761;19;20277;-72
2022/11/09 07:02:59;;;;;;;6.53;1.75;;;11.10;99.90;;;;;;6126002;19;19922;-71
2022/11/09 07:05:06;;;;;;;4.93;0.93;;;11.10;99.90;;;;;;6127142;19;20248;-71
2022/11/09 07:07:10;;;;;;;2.92;1.20;;;11.00;99.90;;;;;;6130448;19;20303;-72
2022/11/09 07:09:14;;;;;;;3.08;1.00;;;11.00;99.90;;;;;;6130207;19;19914;-73
2022/11/09 07:11:18;;;;;;;5.95;1.05;;;11.40;99.90;;;;;;6126367;19;20248;-73
2022/11/09 07:13:22;;;;;;;7.43;1.10;;;11.20;99.90;;;;;;6126754;19;19928;-74
2022/11/09 07:15:26;;;;;;;4.35;1.48;;;11.20;99.90;;;;;;6127237;19;19918;-74
2022/11/09 07:17:32;;;;;;;2.92;1.02;;;11.20;99.90;;;;;;6129506;19;19933;-74
2022/11/09 07:19:36;;;;;;;3.90;0.90;;;11.20;99.90;;;;;;6126053;19;20519;-66
2022/11/09 07:21:42;;;;;;;4.30;1.00;;;11.00;99.90;;;;;;6126996;19;19923;-65
2022/11/09 07:23:48;;;;;;;4.32;1.50;;;11.10;99.90;;;;;;6126517;19;19930;-65
2022/11/09 07:25:52;;;;;;;7.00;1.17;;;11.20;99.90;;;;;;6128198;19;19914;-65
2022/11/09 07:27:56;;;;;;;5.82;1.05;;;11.10;99.90;;;;;;6125406;19;19946;-65
2022/11/09 07:30:00;;;;;;;4.90;0.85;;;;;;;;;;6125496;19;19922;-65
2022/11/09 07:32:04;;;;;;;5.20;1.20;;;11.20;99.90;;;;;;6125257;19;19939;-66
2022/11/09 07:34:08;;;;;;;8.85;1.25;;;;;;;;;;6127356;19;19918;-66
2022/11/09 07:36:12;;;;;;;5.68;1.10;;;11.30;99.90;;;;;;6124845;19;20316;-66
2022/11/09 07:38:19;;;;;;;9.07;2.08;;;11.40;99.90;;;;;;6125815;19;20388;-67
2022/11/09 07:40:23;;;;;;;4.00;1.15;;;10.90;99.90;;;;;;6125029;19;20260;-67
2022/11/09 07:42:28;;;;;;;5.95;1.33;;;11.40;99.90;;;;;;6125833;19;19958;-66
2022/11/09 07:44:32;;;;;;;8.43;1.35;;;;;;;;;;6125829;19;19922;-66
2022/11/09 07:46:36;;;;;;;4.60;1.60;;;11.40;99.90;;;;;;6128915;19;19942;-66
2022/11/09 07:48:40;;;;;;;6.50;1.13;;;11.10;99.90;;;;;;6126880;19;19938;-66
2022/11/09 07:50:44;;;;;;;4.75;1.20;;;11.30;99.90;;;;;;6122205;19;19947;-66
2022/11/09 07:52:48;;;;;;;3.08;1.00;;;11.30;99.90;;;;;;6125788;19;19918;-66
2022/11/09 07:54:54;;;;;;;4.05;1.17;;;11.60;99.90;;;;;;6125084;19;19918;-65
2022/11/09 07:56:58;;;;;;;6.30;1.20;;;11.00;99.90;;;;;;6122112;19;19914;-66
2022/11/09 07:59:02;;;;;;;8.77;1.30;;;11.00;99.90;;;;;;6126022;19;19919;-65
2022/11/09 08:01:09;;;;;;;6.93;1.48;;;10.90;99.90;;;;;;6125937;19;20249;-65
2022/11/09 08:03:13;;;;;;;4.97;1.10;;;11.50;99.90;;;;;;6125579;19;19915;-66
2022/11/09 08:05:17;;;;;;;5.93;1.27;;;11.00;99.90;;;;;;6124341;19;19954;-65
2022/11/09 08:07:22;;;;;;;5.47;1.17;;;;;;;;;;6124866;19;19953;-66
2022/11/09 08:09:26;;;;;;;3.00;1.00;;;11.40;99.90;;;;;;6127860;19;20070;-66
2022/11/09 08:11:32;;;;;;;7.47;2.20;;;11.30;99.90;;;;;;6131257;19;19926;-66
2022/11/09 08:13:36;;;;;;;10.18;1.67;;;11.70;99.90;;;;;;6133437;19;20399;-66
2022/11/09 08:15:40;;;;;;;5.53;1.23;;;11.30;99.90;;;;;;6128716;19;19921;-66
2022/11/09 08:17:44;;;;;;;4.30;2.22;;;11.40;99.90;;;;;;6127657;19;20379;-66
2022/11/09 08:19:48;;;;;;;5.70;1.20;;;11.10;99.90;;;;;;6129904;19;20352;-65
2022/11/09 08:21:56;;;;;;;7.55;1.55;;;11.70;99.90;;;;;;6130721;19;19939;-66
2022/11/09 08:24:00;;;;;;;6.13;1.45;;;11.10;99.90;;;;;;6130625;19;20237;-66
2022/11/09 08:26:06;;;;;;;3.83;1.20;;;11.70;99.90;;;;;;6129239;19;19922;-66
2022/11/09 08:28:12;;;;;;;5.82;1.20;;;11.80;99.90;;;;;;6129859;19;19922;-66
2022/11/09 08:30:18;;;;;;;7.22;1.60;;;12.10;99.90;;;;;;6130877;19;19922;-66
2022/11/09 08:32:22;;;;;;;7.20;2.25;;;11.40;99.90;;;;;;6130763;19;20257;-66
2022/11/09 08:34:26;;;;;;;6.32;1.65;;;;;;;;;;6128359;19;19915;-65
2022/11/09 08:36:31;;;;;;;4.00;1.17;;;;;;;;;;6133068;19;19922;-65
2022/11/09 08:38:35;;;;;;;6.97;2.17;;;11.40;99.90;;;;;;6133032;19;19919;-65
2022/11/09 08:40:40;;;;;;;5.80;1.40;;;11.60;99.90;;;;;;6130273;19;19922;-65
2022/11/09 08:42:44;;;;;;;7.53;1.60;;;11.40;99.90;;;;;;6130613;19;19934;-65
2022/11/09 08:44:51;;;;;;;5.72;1.23;;;11.40;99.90;;;;;;6132266;19;19930;-65
2022/11/09 08:46:55;;;;;;;7.85;1.42;;;11.40;99.90;;;;;;6129252;19;20293;-64
2022/11/09 08:48:59;;;;;;;10.48;2.95;;;;;;;;;;6126081;19;19922;-66
2022/11/09 08:51:03;;;;;;;6.20;1.70;;;11.50;99.90;;;;;;6126200;19;20288;-65
2022/11/09 08:53:08;;;;;;;4.30;1.40;;;11.90;99.90;;;;;;6130378;19;19911;-67
2022/11/09 08:55:12;;;;;;;6.97;1.73;;;11.90;99.90;;;;;;6128022;19;19942;-66
2022/11/09 08:57:18;;;;;;;3.67;1.35;;;11.80;99.90;;;;;;6130110;19;19923;-66
2022/11/09 08:59:22;;;;;;;9.30;2.08;;;11.60;99.90;;;;;;6130303;19;20265;-66
2022/11/09 09:01:28;;;;;;;7.15;1.40;;;12.20;99.90;;;;;;6130505;19;20241;-66
2022/11/09 09:03:32;;;;;;;7.32;1.33;;;11.60;99.90;;;;;;6130448;19;19938;-66
2022/11/09 09:05:37;;;;;;;7.55;1.48;;;12.20;99.90;;;;;;6129566;19;20332;-66
2022/11/09 09:07:41;;;;;;;8.85;1.63;;;11.70;99.90;;;;;;6131990;19;19940;-66
2022/11/09 09:09:45;;;;;;;6.65;1.80;;;11.70;99.90;;;;;;6130343;19;19910;-66
2022/11/09 09:11:49;;;;;;;11.27;1.63;;;12.40;99.90;;;;;;6130491;19;19918;-66
2022/11/09 09:13:53;;;;;;;3.67;1.35;;;12.30;99.90;;;;;;6129709;19;19910;-67
2022/11/09 09:15:57;;;;;;;7.63;1.77;;;;;;;;;;6127817;19;19910;-66
2022/11/09 09:18:05;;;;;;;9.93;1.75;;;12.10;99.90;;;;;;6129453;19;19911;-66
2022/11/09 09:20:09;;;;;;;4.60;1.40;;;11.80;99.90;;;;;;6129654;19;19938;-66
2022/11/09 09:22:13;;;;;;;5.63;1.35;;;12.10;99.90;;;;;;6127911;19;19911;-66
2022/11/09 09:24:17;;;;;;;7.88;1.65;;;12.70;99.90;;;;;;6133744;19;19970;-66
2022/11/09 09:26:21;;;;;;;7.57;1.67;;;12.20;99.90;;;;;;6129652;19;19922;-66
2022/11/09 09:28:25;;;;;;;8.00;2.17;;;;;;;;;;6128361;19;19945;-66
2022/11/09 09:30:29;;;;;;;10.07;1.92;;;12.50;99.90;;;;;;6132660;19;19990;-65
2022/11/09 09:32:33;;;;;;;9.10;1.35;;;11.80;99.90;;;;;;6129358;19;19922;-65
2022/11/09 09:34:39;;;;;;;9.23;1.58;;;12.40;99.90;;;;;;6128636;19;20277;-65
2022/11/09 09:36:43;;;;;;;4.40;1.65;;;12.70;99.90;;;;;;6130712;19;19922;-65
2022/11/09 09:38:47;;;;;;;10.73;1.60;;;12.60;99.90;;;;;;6129093;19;20289;-66
2022/11/09 09:40:59;;;;;;;6.00;2.13;;;12.00;99.90;;;;;;6129150;19;19914;-65
2022/11/09 09:43:03;;;;;;;7.78;1.40;;;12.60;99.90;;;;;;6129028;19;19930;-66
2022/11/09 09:45:14;;;;;;;7.72;1.30;;;12.30;99.90;;;;;;6131799;19;19922;-65
2022/11/09 09:47:24;;;;;;;9.48;1.70;;;12.50;99.90;;;;;;6128756;19;19917;-66
2022/11/09 09:49:31;;;;;;;8.48;2.10;;;12.80;99.90;;;;;;6127236;19;20344;-66
2022/11/09 09:51:42;;;;;;;7.97;1.40;;;12.70;99.90;;;;;;6128620;19;19939;-65
2022/11/09 09:53:51;;;;;;;10.15;1.80;;;12.30;99.90;;;;;;6128898;19;19918;-65
2022/11/09 09:55:58;;;;;;;8.23;1.75;;;12.90;99.90;;;;;;6126792;19;20274;-68
2022/11/09 09:58:09;;;;;;;5.53;1.48;;;12.40;99.90;;;;;;6127807;19;20269;-66
2022/11/09 10:00:22;;;;;;;6.88;2.38;;;12.80;99.90;;;;;;6128478;19;19915;-65
2022/11/09 10:02:29;;;;;;;8.27;1.60;;;12.80;99.90;;;;;;6128910;19;19911;-65
2022/11/09 10:04:38;;;;;;;7.18;1.60;;;12.70;99.90;;;;;;6128687;19;20335;-65
2022/11/09 10:06:57;;;;;;;4.15;1.15;;;13.40;99.90;;;;;;6131232;19;19918;-65
2022/11/09 10:09:10;;;;;;;5.28;1.27;;;12.60;99.90;;;;;;6128339;19;19911;-65
2022/11/09 10:11:23;;;;;;;3.78;1.30;;;12.60;99.90;;;;;;6128427;19;19923;-65
2022/11/09 10:13:44;;;;;;;4.55;1.77;;;12.40;99.90;;;;;;6129148;19;19935;-65
2022/11/09 10:15:54;;;;;;;5.45;1.98;;;13.00;99.90;;;;;;6127594;19;19914;-65
2022/11/09 10:18:10;;;;;;;9.95;2.30;;;12.70;99.90;;;;;;6126380;19;19918;-65
2022/11/09 10:20:26;;;;;;;6.90;2.42;;;12.40;99.90;;;;;;6128097;19;19925;-65
2022/11/09 10:22:42;;;;;;;6.40;1.40;;;12.30;99.90;;;;;;6127627;19;19923;-66
2022/11/09 10:24:54;;;;;;;9.25;1.92;;;12.40;99.90;;;;;;6127715;19;20349;-66
2022/11/09 10:27:00;;;;;;;8.15;1.55;;;13.10;99.90;;;;;;6127846;19;19911;-65
2022/11/09 10:29:17;;;;;;;8.30;1.85;;;12.90;99.90;;;;;;6129811;19;19918;-65
2022/11/09 10:31:23;;;;;;;5.20;2.33;;;12.90;99.90;;;;;;6127848;19;20341;-65
2022/11/09 10:33:29;;;;;;;6.13;1.55;;;13.20;99.90;;;;;;6125911;19;19919;-65
2022/11/09 10:35:38;;;;;;;7.60;1.70;;;13.60;99.90;;;;;;6128789;19;19923;-66
2022/11/09 10:37:48;;;;;;;7.30;1.90;;;13.50;99.90;;;;;;6127380;19;19967;-65
2022/11/09 10:39:57;;;;;;;7.00;1.52;;;13.20;99.90;;;;;;6127662;19;19919;-66
2022/11/09 10:42:01;;;;;;;10.93;3.25;;;13.00;99.90;;;;;;6127453;19;19918;-65
2022/11/09 10:44:05;;;;;;;5.18;1.85;;;13.80;99.90;;;;;;6130423;19;19938;-65
2022/11/09 10:46:10;;;;;;;6.60;1.48;;;13.50;99.90;;;;;;6127417;19;20248;-66
2022/11/09 10:48:15;;;;;;;6.85;1.70;;;13.20;99.90;;;;;;6127468;19;19914;-66
2022/11/09 10:50:32;;;;;;;10.45;1.95;;;13.30;99.90;;;;;;6127974;19;19918;-66
2022/11/09 10:52:41;;;;;;;6.75;1.55;;;13.30;99.90;;;;;;6127434;19;19917;-66
2022/11/09 10:54:47;;;;;;;8.98;1.60;;;13.20;99.90;;;;;;6126850;19;19921;-66
2022/11/09 10:56:59;;;;;;;8.70;2.28;;;13.40;99.90;;;;;;6127748;19;19938;-66
2022/11/09 10:59:03;;;;;;;7.43;1.42;;;12.90;99.90;;;;;;6127222;19;19932;-66
2022/11/09 11:01:14;;;;;;;9.63;2.75;;;13.30;99.90;;;;;;6127222;19;19918;-66
2022/11/09 11:03:19;;;;;;;6.90;1.70;;;13.30;99.90;;;;;;6127211;19;20308;-66